Seattle, Washington
Traffic Map
Current Weather Conditions
Seattle, Washington
Scattered Clouds
Scattered Clouds
50°
Feels Like: 50°
Wind Chill: 50° Ceiling: Unl
Heat Index: 50° Visibility: 10mi
Dew Point: 47° Wind: 0mph
Humidity: 89% Direction: ° ()
Pressure: 30.31in Gusts: 0mph
Raw Report DataKBFI 110553Z 00000KT 10SM SCT018 10/08 A3031 RMK AO2 SLP263 60001 T01000083 10133 20094 51011
Traffic Incident Summary
Active as of:
Severity:
Category:
InformationThere was an issue retrieving the traffic information for this location. Please try a different location or try again shortly.
Advertisements
Track Severe Weather on mobile